Time;durP1;ratioP1;P1;durP2;ratioP2;P2;SDS_P1;SDS_P2;PMS_P1;PMS_P2;Temp;Humidity;BMP_temperature;BMP_pressure;BME280_temperature;BME280_humidity;BME280_pressure;Samples;Min_cycle;Max_cycle;Signal;HPM_P1;HPM_P2
2022/07/11 18:09:34;;;;;;;58.58;35.72;;;;;;;30.24;31.27;99496.06;5087201;27;21072;-53
2022/07/11 18:12:03;;;;;;;5.00;3.80;;;;;;;29.29;33.06;99497.50;5086847;28;20195;-52
2022/07/11 18:14:30;;;;;;;4.78;2.10;;;;;;;28.15;35.27;99501.44;5086447;28;20195;-53
2022/07/11 18:16:59;;;;;;;2.45;2.25;;;;;;;27.48;36.57;99503.69;5086078;28;20199;-52
2022/07/11 18:19:26;;;;;;;3.30;3.10;;;;;;;27.02;38.18;99511.84;5086344;28;20217;-53
2022/07/11 18:21:53;;;;;;;5.40;2.53;;;;;;;26.51;38.42;99504.38;5086212;28;20191;-54
2022/07/11 18:24:20;;;;;;;5.93;2.60;;;;;;;26.10;39.77;99503.72;5086209;28;20199;-62
2022/07/11 18:26:49;;;;;;;4.50;2.30;;;;;;;25.96;39.91;99510.31;5083156;28;20278;-62
2022/07/11 18:29:16;;;;;;;4.05;2.72;;;;;;;25.79;39.47;99510.22;5085419;28;20223;-60
2022/07/11 18:31:43;;;;;;;9.65;5.75;;;;;;;25.59;39.38;99512.00;5083483;28;20204;-60
2022/07/11 18:34:10;;;;;;;3.25;2.47;;;;;;;25.31;40.09;99526.94;5087542;28;20196;-61
2022/07/11 18:36:37;;;;;;;6.32;2.17;;;;;;;25.10;39.76;99528.84;5087094;28;20200;-61
2022/07/11 18:41:50;;;;;;;2.33;2.22;;;;;;;24.84;40.14;99525.78;5082602;28;20223;-61
2022/07/11 18:44:17;;;;;;;3.13;2.83;;;;;;;24.69;40.53;99543.09;5081196;28;20219;-61
2022/07/11 18:46:44;;;;;;;3.78;2.53;;;;;;;24.57;40.84;99544.97;5087134;28;20249;-61
2022/07/11 18:49:11;;;;;;;2.20;2.00;;;;;;;24.47;40.76;99544.94;5087008;28;20687;-60
2022/07/11 18:51:38;;;;;;;4.65;2.92;;;;;;;24.38;41.21;99551.00;5086856;28;20306;-61
2022/07/11 18:54:05;;;;;;;4.93;2.35;;;;;;;24.31;41.74;99551.66;5086675;28;20227;-59
2022/07/11 18:56:32;;;;;;;7.40;2.92;;;;;;;24.25;42.12;99561.00;5086970;28;20710;-60
2022/07/11 18:59:00;;;;;;;3.22;2.67;;;;;;;24.09;42.46;99571.16;5086721;28;20222;-60
2022/07/11 19:01:27;;;;;;;5.25;2.47;;;;;;;23.88;43.25;99572.00;5087357;28;20713;-62
2022/07/11 19:03:55;;;;;;;2.63;2.17;;;;;;;23.73;44.09;99575.91;5087188;28;20767;-60
2022/07/11 19:06:22;;;;;;;3.85;3.22;;;;;;;23.62;44.01;99575.94;5086700;28;20233;-61
2022/07/11 19:08:49;;;;;;;6.60;3.08;;;;;;;23.62;44.49;99581.25;5086735;28;20682;-62
2022/07/11 19:11:16;;;;;;;4.57;3.38;;;;;;;23.65;44.38;99581.00;5086661;28;20220;-58
2022/07/11 19:13:43;;;;;;;3.92;2.53;;;;;;;23.62;43.75;99583.88;5087368;28;20259;-62
2022/07/11 19:16:11;;;;;;;2.55;2.40;;;;;;;23.41;43.37;99581.16;5087247;28;20663;-62
2022/07/11 19:18:38;;;;;;;3.97;2.70;;;;;;;23.35;43.66;99597.53;5086305;28;20768;-60
2022/07/11 19:21:05;;;;;;;2.30;2.20;;;;;;;23.28;43.63;99587.53;5072613;28;20302;-61
2022/07/11 19:23:32;;;;;;;3.47;2.50;;;;;;;23.14;44.18;99599.22;5072630;28;20306;-53
2022/07/11 19:25:59;;;;;;;3.20;2.55;;;;;;;23.04;44.73;99603.56;5070956;28;20349;-54
2022/07/11 19:28:26;;;;;;;6.43;2.70;;;;;;;22.85;45.23;99606.81;5071174;28;20267;-54
2022/07/11 19:30:53;;;;;;;5.85;2.50;;;;;;;22.79;45.35;99607.31;5071413;28;20219;-54
2022/07/11 19:33:22;;;;;;;2.90;2.58;;;;;;;22.70;45.50;99610.63;5071259;28;20700;-54
2022/07/11 19:35:49;;;;;;;5.88;3.13;;;;;;;22.65;45.90;99607.50;5070872;28;20782;-61
2022/07/11 19:38:16;;;;;;;5.93;3.28;;;;;;;22.62;46.02;99607.72;5072541;28;20731;-60
2022/07/11 19:40:43;;;;;;;5.65;2.83;;;;;;;22.59;46.02;99615.91;5072285;28;20216;-61
2022/07/11 19:43:10;;;;;;;5.95;3.13;;;;;;;22.58;46.68;99614.22;5072206;28;20219;-60
2022/07/11 19:45:37;;;;;;;3.78;3.05;;;;;;;22.50;45.96;99624.53;5072666;28;20223;-60
2022/07/11 19:48:05;;;;;;;3.58;2.95;;;;;;;22.42;46.66;99623.34;5072339;28;20244;-60
2022/07/11 19:50:33;;;;;;;4.13;3.28;;;;;;;22.35;46.48;99627.38;5072553;28;20247;-60
2022/07/11 19:53:00;;;;;;;6.70;3.45;;;;;;;22.32;46.34;99626.78;5071887;28;20607;-54
2022/07/11 19:58:20;;;;;;;5.40;3.78;;;;;;;22.30;46.48;99628.69;5058205;28;20247;-54
2022/07/11 20:00:48;;;;;;;7.03;3.20;;;;;;;22.23;46.13;99632.78;5071426;28;20616;-54
2022/07/11 20:03:15;;;;;;;4.40;2.72;;;;;;;22.13;46.31;99634.41;5071005;28;20257;-53
2022/07/11 20:05:43;;;;;;;3.15;2.90;;;;;;;22.08;46.85;99637.41;5070736;28;20600;-53
2022/07/11 20:08:11;;;;;;;4.63;2.67;;;;;;;21.97;45.92;99626.75;5071249;28;20783;-60
2022/07/11 20:10:38;;;;;;;8.95;2.78;;;;;;;21.96;47.01;99635.63;5072391;28;20747;-55
2022/07/11 20:13:05;;;;;;;3.90;2.53;;;;;;;21.91;46.90;99638.59;5070973;28;20220;-54
2022/07/11 20:15:32;;;;;;;3.85;2.55;;;;;;;21.95;46.77;99634.78;5071026;28;20307;-54
2022/07/11 20:17:59;;;;;;;3.60;2.63;;;;;;;21.89;46.78;99639.69;5070577;28;20238;-54
2022/07/11 20:20:26;;;;;;;2.33;2.13;;;;;;;21.87;46.90;99637.16;5070836;28;20726;-55
2022/07/11 20:22:55;;;;;;;2.80;2.60;;;;;;;21.83;46.43;99629.56;5070847;28;20223;-54
2022/07/11 20:25:22;;;;;;;4.40;2.63;;;;;;;21.83;45.67;99634.84;5070873;28;20718;-56
2022/07/11 20:27:49;;;;;;;2.85;2.20;;;;;;;21.83;45.90;99646.25;5070894;28;20674;-61
2022/07/11 20:30:16;;;;;;;4.57;2.83;;;;;;;21.87;45.91;99649.53;5071684;28;20228;-61
2022/07/11 20:32:43;;;;;;;2.33;2.22;;;;;;;21.87;45.75;99644.25;5074873;28;20230;-61
2022/07/11 20:35:10;;;;;;;3.15;2.90;;;;;;;21.82;45.83;99647.19;5090455;28;20199;-62
2022/07/11 20:37:37;;;;;;;2.47;2.20;;;;;;;21.90;45.33;99646.63;5091119;28;20683;-63
2022/07/11 20:40:08;;;;;;;4.35;2.22;;;;;;;21.91;45.06;99637.75;5091209;28;20223;-62
2022/07/11 20:42:36;;;;;;;3.05;2.90;;;;;;;21.88;45.09;99653.84;5091232;28;20607;-62
2022/07/11 20:45:04;;;;;;;2.20;2.10;;;;;;;21.85;45.47;99648.78;5090749;28;20195;-62
2022/07/11 20:47:31;;;;;;;4.30;1.98;;;;;;;21.95;45.13;99660.38;5090992;28;20200;-62
2022/07/11 20:49:58;;;;;;;2.88;2.60;;;;;;;21.92;45.32;99656.13;5091282;28;20753;-61
2022/07/11 20:52:25;;;;;;;2.33;2.20;;;;;;;21.89;45.56;99661.69;5091437;28;20255;-61
2022/07/11 20:54:52;;;;;;;2.75;2.55;;;;;;;21.89;45.70;99658.19;5091340;28;20195;-62
2022/07/11 20:57:20;;;;;;;2.20;2.10;;;;;;;21.85;45.75;99660.19;5091278;28;20222;-62
2022/07/11 20:59:48;;;;;;;2.22;2.13;;;;;;;21.81;46.20;99657.88;5091197;28;20290;-62
2022/07/11 21:02:15;;;;;;;4.60;2.45;;;;;;;21.81;45.77;99660.53;5091234;28;20316;-60
2022/07/11 21:04:42;;;;;;;4.13;2.22;;;;;;;21.77;46.00;99667.00;5091446;28;20663;-62
2022/07/11 21:07:09;;;;;;;5.95;2.63;;;;;;;21.78;45.89;99664.25;5090807;28;20210;-60
2022/07/11 21:09:36;;;;;;;2.83;2.17;;;;;;;21.74;45.72;99668.06;5090791;28;20227;-61
2022/07/11 21:12:03;;;;;;;2.50;2.40;;;;;;;21.66;46.00;99666.00;5090710;28;20203;-62
2022/07/11 21:14:32;;;;;;;2.55;2.20;;;;;;;21.66;46.27;99671.28;5091415;28;20230;-61
2022/07/11 21:16:59;;;;;;;1.95;1.85;;;;;;;21.68;45.97;99671.97;5091467;28;20199;-60
2022/07/11 21:19:26;;;;;;;2.38;2.28;;;;;;;21.69;45.93;99672.81;5091045;28;20201;-61
2022/07/11 21:21:53;;;;;;;2.10;1.98;;;;;;;21.62;45.84;99667.16;5090469;28;20231;-62
2022/07/11 21:24:20;;;;;;;2.33;2.17;;;;;;;21.65;46.10;99672.22;5090564;28;20282;-54
2022/07/11 21:26:46;;;;;;;1.88;1.75;;;;;;;21.61;46.08;99667.25;5089937;28;20663;-55
2022/07/11 21:29:13;;;;;;;2.55;2.00;;;;;;;21.64;45.96;99680.25;5090474;28;20600;-54
2022/07/11 21:31:42;;;;;;;2.00;1.80;;;;;;;21.61;46.56;99673.38;5090230;28;20205;-53
2022/07/11 21:34:09;;;;;;;2.67;1.92;;;;;;;21.62;46.35;99671.59;5090038;28;20520;-55
2022/07/11 21:36:35;;;;;;;2.42;1.88;;;;;;;21.52;47.00;99671.41;5090123;28;20207;-54
2022/07/11 21:39:02;;;;;;;3.15;1.80;;;;;;;21.47;46.72;99681.44;5089819;28;20187;-53
2022/07/11 21:41:29;;;;;;;3.35;2.00;;;;;;;21.46;46.78;99676.25;5089842;28;20286;-52
2022/07/11 21:43:56;;;;;;;2.17;2.08;;;;;;;21.43;46.97;99682.63;5089548;28;20227;-54
2022/07/11 21:46:23;;;;;;;2.15;2.05;;;;;;;21.43;46.99;99681.78;5089675;28;20195;-54
2022/07/11 21:48:51;;;;;;;2.20;2.00;;;;;;;21.39;47.59;99683.78;5089874;28;20309;-53
2022/07/11 21:51:19;;;;;;;4.95;2.05;;;;;;;21.40;46.97;99682.00;5089726;28;20202;-54
2022/07/11 21:53:45;;;;;;;2.17;1.75;;;;;;;21.41;46.98;99688.97;5089623;28;20241;-55
2022/07/11 21:56:12;;;;;;;1.80;1.70;;;;;;;21.37;46.84;99686.53;5089855;28;20199;-54
2022/07/11 21:58:39;;;;;;;2.10;2.00;;;;;;;21.29;47.21;99683.59;5089906;28;20584;-54
2022/07/11 22:01:06;;;;;;;2.00;1.90;;;;;;;21.31;47.38;99686.97;5089641;28;20690;-54
2022/07/11 22:03:33;;;;;;;1.80;1.75;;;;;;;21.26;47.60;99688.25;5089652;28;20203;-54
2022/07/11 22:06:01;;;;;;;3.15;2.17;;;;;;;21.22;47.67;99692.06;5089564;28;20195;-53
2022/07/11 22:08:28;;;;;;;7.03;2.35;;;;;;;21.20;47.65;99686.88;5089324;28;20230;-62
2022/07/11 22:10:55;;;;;;;2.00;1.90;;;;;;;21.21;47.48;99693.00;5089456;28;20206;-54
2022/07/11 22:13:22;;;;;;;4.03;2.10;;;;;;;21.16;47.66;99698.56;5089685;28;20745;-54
2022/07/11 22:15:49;;;;;;;2.17;1.95;;;;;;;21.14;47.67;99696.97;5089478;28;20312;-54
2022/07/11 22:18:16;;;;;;;2.38;2.05;;;;;;;21.15;47.75;99698.66;5089535;28;20195;-54
2022/07/11 22:20:43;;;;;;;1.83;1.73;;;;;;;21.09;47.71;99697.31;5089602;28;20286;-54
2022/07/11 22:23:11;;;;;;;2.10;2.00;;;;;;;21.14;47.53;99700.47;5089371;28;20284;-53
2022/07/11 22:25:38;;;;;;;2.08;1.98;;;;;;;21.19;47.19;99705.47;5089670;28;20202;-61
2022/07/11 22:28:05;;;;;;;2.25;2.10;;;;;;;21.18;47.16;99711.66;5089765;28;20279;-62
2022/07/11 22:30:32;;;;;;;2.28;1.88;;;;;;;21.11;47.22;99702.47;5089803;28;20690;-62
2022/07/11 22:32:59;;;;;;;2.47;2.25;;;;;;;21.08;47.73;99708.81;5089500;28;20290;-62
2022/07/11 22:35:26;;;;;;;22.20;2.72;;;;;;;21.14;47.59;99705.75;5089514;28;20322;-63
2022/07/11 22:37:53;;;;;;;3.92;2.20;;;;;;;21.08;47.39;99711.47;5089753;28;20667;-62
2022/07/11 22:40:23;;;;;;;3.25;2.50;;;;;;;21.06;47.62;99701.94;5089539;28;20198;-62
2022/07/11 22:45:34;;;;;;;5.28;4.80;;;;;;;21.07;47.80;99711.56;5089361;28;20588;-55
2022/07/11 22:48:01;;;;;;;3.78;3.58;;;;;;;21.01;48.15;99712.81;5089064;28;20282;-54
2022/07/11 22:50:28;;;;;;;6.25;5.78;;;;;;;20.99;48.08;99712.91;5088996;28;20219;-53
2022/07/11 22:52:55;;;;;;;2.63;2.22;;;;;;;21.03;47.93;99711.75;5089080;28;20195;-54
2022/07/11 22:55:23;;;;;;;3.05;2.88;;;;;;;21.00;48.10;99705.84;5091395;28;20588;-53
2022/07/11 22:57:50;;;;;;;6.57;4.07;;;;;;;20.98;48.12;99705.97;5093173;28;20191;-60
2022/07/11 23:00:17;;;;;;;3.17;2.60;;;;;;;20.95;48.20;99706.16;5093070;28;20195;-61
2022/07/11 23:02:44;;;;;;;6.38;2.75;;;;;;;20.93;48.13;99709.84;5093118;28;20205;-60
2022/07/11 23:05:11;;;;;;;3.10;2.80;;;;;;;20.94;48.25;99709.75;5092947;28;20219;-60
2022/07/11 23:07:38;;;;;;;2.63;2.47;;;;;;;20.94;48.24;99715.03;5092913;28;20237;-60
2022/07/11 23:10:06;;;;;;;2.50;2.40;;;;;;;20.93;48.10;99707.22;5092899;28;20688;-61
2022/07/11 23:12:34;;;;;;;2.75;2.00;;;;;;;20.85;48.02;99715.66;5093250;28;20278;-60
2022/07/11 23:15:01;;;;;;;2.47;2.28;;;;;;;20.81;48.35;99708.06;5093192;28;20195;-60
2022/07/11 23:17:28;;;;;;;2.47;2.30;;;;;;;20.81;48.50;99718.59;5092925;28;20198;-60
2022/07/11 23:19:55;;;;;;;2.60;2.35;;;;;;;20.79;48.58;99710.78;5092805;28;20198;-59
2022/07/11 23:22:22;;;;;;;2.05;1.95;;;;;;;20.73;48.31;99711.22;5093020;28;20195;-60
2022/07/11 23:24:49;;;;;;;2.58;2.25;;;;;;;20.66;48.51;99710.78;5092970;28;20228;-60
2022/07/11 23:27:16;;;;;;;2.28;2.17;;;;;;;20.66;48.84;99715.19;5092720;28;20195;-60
2022/07/11 23:29:45;;;;;;;4.10;2.17;;;;;;;20.67;49.05;99712.47;5092626;28;20235;-59
2022/07/11 23:32:12;;;;;;;2.45;2.25;;;;;;;20.66;49.23;99718.69;5092565;28;20264;-60
2022/07/11 23:34:39;;;;;;;2.90;2.30;;;;;;;20.61;49.16;99712.03;5092968;28;20227;-60
2022/07/11 23:37:06;;;;;;;6.88;2.30;;;;;;;20.61;49.27;99712.88;5092554;28;20282;-60
2022/07/11 23:39:33;;;;;;;4.63;2.40;;;;;;;20.56;49.13;99716.75;5092421;28;20188;-60
2022/07/11 23:42:00;;;;;;;2.05;1.83;;;;;;;20.54;49.32;99721.31;5092218;28;20198;-61
2022/07/11 23:44:27;;;;;;;2.20;1.98;;;;;;;20.45;49.79;99721.91;5092451;28;20679;-61
2022/07/11 23:46:56;;;;;;;3.00;2.28;;;;;;;20.47;49.52;99725.28;5092420;28;20278;-62
2022/07/11 23:49:23;;;;;;;2.35;2.15;;;;;;;20.41;49.97;99721.28;5092224;28;20219;-61
2022/07/11 23:51:50;;;;;;;3.10;2.42;;;;;;;20.38;49.97;99718.84;5092392;28;20231;-61
2022/07/11 23:54:17;;;;;;;2.05;1.90;;;;;;;20.30;49.92;99721.09;5092629;28;20195;-61
2022/07/11 23:56:44;;;;;;;2.20;2.10;;;;;;;20.30;49.92;99724.59;5092105;28;20498;-62
2022/07/11 23:59:11;;;;;;;3.17;2.30;;;;;;;20.28;50.39;99723.84;5092229;28;20272;-63
